Terminal Aerodrome Forecast
Issued by NWS

Home | Current Version | Previous Version | Text Only | Print | Product List | Glossary On
Versions: 1 2 3 4 5 6 7 8 9 10 11 12 13 14
000
FTUS43 KGRR 232320
TAFAZO
TAF
KAZO 232320Z 2400/2424 VRB04KT P6SM SCT100 BKN250
     FM241400 18007KT P6SM BKN090
     FM241800 18009KT P6SM VCSH SCT050 BKN080=

USA.gov is the U.S. government's official web portal to all federal, state and local government web resources and services.